createdAt,value
2023-07-26T00:02:22.812Z,88.71
2023-07-26T00:04:49.552Z,89.23
2023-07-26T00:07:15.981Z,89.47
2023-07-26T00:09:42.535Z,89.56
2023-07-26T00:12:09.001Z,89.47
2023-07-26T00:14:35.596Z,89.89
2023-07-26T00:17:02.778Z,90.23
2023-07-26T00:19:29.905Z,90.67
2023-07-26T00:21:56.477Z,90.88
2023-07-26T00:24:23.071Z,91.51
2023-07-26T00:26:49.673Z,91.27
2023-07-26T00:29:16.098Z,91.29
2023-07-26T00:31:42.761Z,91.83
2023-07-26T00:34:09.226Z,91.82
2023-07-26T00:36:35.949Z,91.29
2023-07-26T00:39:04.436Z,91.59
2023-07-26T00:41:31.219Z,92.14
2023-07-26T00:43:57.811Z,91.34
2023-07-26T00:46:27.888Z,91.95
2023-07-26T00:48:54.876Z,91.90
2023-07-26T00:51:22.940Z,92.41
2023-07-26T00:53:49.660Z,92.37
2023-07-26T00:56:16.245Z,91.88
2023-07-26T00:58:42.709Z,92.24
2023-07-26T01:01:09.255Z,92.27
2023-07-26T01:03:35.809Z,92.41
2023-07-26T01:06:11.054Z,91.80
2023-07-26T01:09:03.603Z,92.76
2023-07-26T01:11:45.931Z,92.78
2023-07-26T01:14:22.536Z,91.97
2023-07-26T01:16:49.679Z,91.85
2023-07-26T01:19:16.245Z,91.68
2023-07-26T01:21:42.698Z,91.91
2023-07-26T01:24:09.142Z,91.67
2023-07-26T01:26:36.054Z,91.71
2023-07-26T01:29:02.705Z,92.25
2023-07-26T01:31:29.491Z,92.59
2023-07-26T01:33:59.430Z,92.50
2023-07-26T01:36:27.747Z,93.56
2023-07-26T01:38:54.727Z,93.44
2023-07-26T01:41:23.563Z,93.36
2023-07-26T01:43:50.086Z,94.03
2023-07-26T01:46:16.683Z,93.69
2023-07-26T01:48:43.185Z,93.30
2023-07-26T01:51:09.841Z,93.30
2023-07-26T01:53:36.384Z,93.36
2023-07-26T01:56:03.744Z,93.71
2023-07-26T01:58:31.096Z,93.90
2023-07-26T02:01:00.124Z,94.21
2023-07-26T02:03:27.303Z,94.30
2023-07-26T02:05:53.910Z,94.72
2023-07-26T02:08:20.878Z,94.83
2023-07-26T02:10:48.244Z,95.91
2023-07-26T02:13:14.763Z,96.04
2023-07-26T02:15:41.559Z,95.96
2023-07-26T02:18:08.108Z,95.71
2023-07-26T02:20:35.225Z,95.47
2023-07-26T02:23:02.688Z,96.10
2023-07-26T02:25:30.003Z,96.46
2023-07-26T02:27:59.887Z,96.50
2023-07-26T02:30:27.018Z,96.70
2023-07-26T02:32:54.263Z,97.00
2023-07-26T02:35:20.760Z,96.63
2023-07-26T02:37:47.465Z,97.22
2023-07-26T02:40:14.134Z,96.85
2023-07-26T02:42:40.817Z,96.47
2023-07-26T02:45:07.715Z,96.55
2023-07-26T02:47:34.480Z,97.13
2023-07-26T02:50:03.933Z,97.13
2023-07-26T02:52:34.183Z,96.68
2023-07-26T02:55:01.141Z,96.24
2023-07-26T02:57:27.753Z,95.18
2023-07-26T02:59:54.532Z,95.70
2023-07-26T03:02:21.037Z,95.43
2023-07-26T03:04:47.764Z,95.90
2023-07-26T03:07:14.341Z,96.77
2023-07-26T03:09:40.798Z,96.64
2023-07-26T03:12:07.743Z,95.90
2023-07-26T03:14:34.319Z,96.45
2023-07-26T03:17:12.354Z,96.40
2023-07-26T03:19:47.602Z,95.33
2023-07-26T03:22:14.089Z,95.85
2023-07-26T03:24:40.603Z,96.37
2023-07-26T03:27:08.651Z,96.40
2023-07-26T03:29:35.358Z,96.09
2023-07-26T03:32:01.965Z,95.97
2023-07-26T03:34:28.815Z,96.53
2023-07-26T03:36:55.510Z,96.45
2023-07-26T03:39:22.061Z,96.53
2023-07-26T03:41:48.936Z,96.93
2023-07-26T03:44:15.574Z,96.76
2023-07-26T03:46:43.262Z,96.08
2023-07-26T03:49:11.431Z,96.17
2023-07-26T03:51:38.250Z,95.50
2023-07-26T03:54:04.903Z,95.93
2023-07-26T03:56:31.653Z,96.18
2023-07-26T03:58:59.254Z,96.05
2023-07-26T04:01:26.824Z,96.15
2023-07-26T04:03:53.564Z,96.50
2023-07-26T04:06:20.103Z,96.70
2023-07-26T04:08:47.493Z,95.91
2023-07-26T04:11:13.930Z,96.05
2023-07-26T04:13:40.353Z,95.96
2023-07-26T04:16:33.368Z,95.16
2023-07-26T04:19:00.208Z,95.06
2023-07-26T04:21:26.742Z,95.04
2023-07-26T04:23:53.180Z,94.52
2023-07-26T04:26:20.460Z,94.65
2023-07-26T04:28:49.700Z,95.28
2023-07-26T04:31:16.143Z,95.79
2023-07-26T04:33:42.666Z,94.99
2023-07-26T04:36:09.157Z,94.64
2023-07-26T04:38:35.634Z,94.75
2023-07-26T04:41:04.817Z,94.49
2023-07-26T04:43:31.377Z,94.16
2023-07-26T04:45:58.131Z,94.97
2023-07-26T04:48:24.675Z,94.39
2023-07-26T04:50:51.150Z,94.29
2023-07-26T04:53:17.982Z,94.91
2023-07-26T04:55:46.526Z,94.79
2023-07-26T04:58:13.809Z,94.58
2023-07-26T05:00:41.253Z,94.24
2023-07-26T05:03:08.942Z,93.71
2023-07-26T05:05:35.852Z,94.17
2023-07-26T05:08:02.778Z,94.02
2023-07-26T05:10:30.331Z,93.52
2023-07-26T05:12:58.384Z,93.34
2023-07-26T05:15:25.256Z,93.21
2023-07-26T05:17:52.505Z,92.23
2023-07-26T05:20:19.138Z,93.16
2023-07-26T05:22:45.875Z,92.56
2023-07-26T05:25:12.414Z,91.61
2023-07-26T05:27:38.877Z,91.14
2023-07-26T05:30:06.164Z,91.37
2023-07-26T05:32:32.978Z,90.68
2023-07-26T05:34:59.851Z,90.60
2023-07-26T05:37:26.502Z,89.18
2023-07-26T05:39:53.157Z,89.38
2023-07-26T05:42:19.886Z,89.99
2023-07-26T05:44:46.717Z,88.99
2023-07-26T05:47:14.826Z,89.60
2023-07-26T05:49:45.019Z,89.88
2023-07-26T05:52:11.929Z,89.83
2023-07-26T05:54:38.354Z,89.64
2023-07-26T05:57:05.415Z,89.40
2023-07-26T05:59:32.176Z,89.00
2023-07-26T06:01:59.600Z,88.65
2023-07-26T06:04:26.342Z,88.47
2023-07-26T06:06:52.864Z,87.00
2023-07-26T06:09:22.072Z,86.11
2023-07-26T06:11:56.729Z,86.27
2023-07-26T06:14:25.772Z,85.77
2023-07-26T06:16:53.064Z,86.57
2023-07-26T06:19:19.582Z,86.53
2023-07-26T06:21:46.580Z,85.43
2023-07-26T06:24:13.367Z,85.39
2023-07-26T06:26:39.928Z,84.94
2023-07-26T06:29:06.419Z,84.70
2023-07-26T06:31:33.318Z,83.47
2023-07-26T06:34:00.509Z,83.59
2023-07-26T06:36:27.046Z,83.73
2023-07-26T06:38:53.492Z,83.79
2023-07-26T06:41:19.958Z,84.58
2023-07-26T06:43:47.609Z,84.55
2023-07-26T06:46:14.319Z,85.44
2023-07-26T06:48:42.568Z,84.60
2023-07-26T06:51:10.967Z,84.29
2023-07-26T06:53:37.391Z,84.24
2023-07-26T06:56:03.915Z,84.37
2023-07-26T06:58:30.421Z,83.74
2023-07-26T07:00:56.933Z,83.54
2023-07-26T07:03:23.405Z,83.14
2023-07-26T07:05:49.981Z,82.90
2023-07-26T07:08:16.375Z,82.28
2023-07-26T07:10:42.817Z,81.59
2023-07-26T07:13:09.280Z,80.01
2023-07-26T07:15:35.897Z,79.96
2023-07-26T07:18:15.202Z,79.77
2023-07-26T07:20:42.195Z,79.07
2023-07-26T07:23:09.895Z,79.97
2023-07-26T07:25:39.516Z,80.32
2023-07-26T07:28:06.293Z,78.80
2023-07-26T07:30:33.691Z,78.84
2023-07-26T07:33:00.638Z,77.83
2023-07-26T07:35:27.336Z,77.11
2023-07-26T07:37:53.776Z,77.97
2023-07-26T07:40:20.197Z,76.19
2023-07-26T07:42:47.070Z,74.83
2023-07-26T07:45:13.686Z,75.85
2023-07-26T07:47:40.212Z,74.05
2023-07-26T07:50:07.179Z,73.67
2023-07-26T07:52:33.933Z,71.93
2023-07-26T07:55:00.529Z,70.70
2023-07-26T07:57:28.827Z,68.25
2023-07-26T07:59:57.820Z,66.88
2023-07-26T08:02:24.786Z,66.53
2023-07-26T08:04:51.330Z,66.84
2023-07-26T08:07:17.737Z,67.30
2023-07-26T08:09:44.234Z,68.38
2023-07-26T08:12:10.663Z,68.49
2023-07-26T08:14:37.146Z,67.26
2023-07-26T08:17:03.961Z,68.49
2023-07-26T08:19:30.615Z,69.85
2023-07-26T08:21:57.144Z,69.78
2023-07-26T08:24:24.282Z,68.38
2023-07-26T08:26:52.937Z,69.06
2023-07-26T08:29:19.412Z,69.94
2023-07-26T08:31:46.178Z,68.77
2023-07-26T08:34:12.658Z,68.37
2023-07-26T08:36:39.141Z,66.63
2023-07-26T08:39:05.856Z,66.14
2023-07-26T08:41:32.815Z,65.09
2023-07-26T08:44:02.702Z,64.75
2023-07-26T08:46:30.177Z,65.17
2023-07-26T08:48:57.761Z,65.54
2023-07-26T08:51:25.139Z,64.17
2023-07-26T08:53:53.104Z,64.14
2023-07-26T08:56:20.440Z,63.69
2023-07-26T08:58:47.241Z,61.33
2023-07-26T09:01:13.813Z,60.13
2023-07-26T09:03:42.100Z,62.38
2023-07-26T09:06:09.380Z,63.34
2023-07-26T09:08:36.631Z,64.29
2023-07-26T09:11:24.408Z,62.50
2023-07-26T09:13:54.972Z,61.99
2023-07-26T09:16:21.798Z,60.88
2023-07-26T09:19:02.651Z,59.41
2023-07-26T09:21:32.214Z,59.99
2023-07-26T09:24:00.402Z,58.93
2023-07-26T09:26:40.967Z,58.75
2023-07-26T09:29:16.579Z,59.32
2023-07-26T09:31:44.699Z,59.83
2023-07-26T09:34:14.025Z,60.66
2023-07-26T09:36:46.084Z,60.46
2023-07-26T09:39:13.957Z,60.13
2023-07-26T09:41:41.238Z,60.92
2023-07-26T09:44:13.720Z,60.12
2023-07-26T09:46:54.335Z,59.14
2023-07-26T09:49:25.082Z,58.06
2023-07-26T09:54:33.136Z,56.05
2023-07-26T09:57:01.177Z,56.92
2023-07-26T09:59:29.812Z,57.16
2023-07-26T10:02:00.791Z,56.54
2023-07-26T10:04:51.597Z,56.27
2023-07-26T10:07:19.743Z,56.60
2023-07-26T10:09:49.109Z,57.23
2023-07-26T10:12:16.193Z,59.58
2023-07-26T10:14:43.610Z,62.34
2023-07-26T10:17:11.300Z,68.17
2023-07-26T10:19:41.408Z,71.75
2023-07-26T10:22:08.333Z,74.69
2023-07-26T10:24:37.484Z,78.24
2023-07-26T10:27:05.248Z,81.29
2023-07-26T10:29:32.053Z,83.83
2023-07-26T10:32:07.565Z,84.97
2023-07-26T10:34:34.442Z,86.31
2023-07-26T10:37:17.678Z,87.08
2023-07-26T10:39:45.272Z,87.12
2023-07-26T10:42:26.648Z,87.98
2023-07-26T10:44:54.919Z,86.62
2023-07-26T10:47:21.958Z,86.29
2023-07-26T10:49:48.847Z,84.29
2023-07-26T10:52:16.096Z,84.86
2023-07-26T10:54:50.919Z,85.27
2023-07-26T10:57:23.144Z,85.61
2023-07-26T11:00:18.009Z,84.95
2023-07-26T11:02:49.417Z,80.14
2023-07-26T11:05:18.764Z,81.19
2023-07-26T11:08:03.123Z,80.39
2023-07-26T11:10:39.503Z,80.20
2023-07-26T11:13:15.330Z,81.24
2023-07-26T11:16:14.210Z,81.73
2023-07-26T11:18:41.347Z,80.56
2023-07-26T11:21:07.911Z,80.70
2023-07-26T11:23:34.491Z,81.80
2023-07-26T11:26:02.531Z,83.07
2023-07-26T11:28:34.002Z,81.96
2023-07-26T11:31:01.569Z,82.31
2023-07-26T11:33:40.178Z,76.45
2023-07-26T11:36:10.733Z,77.08
2023-07-26T11:38:43.316Z,75.50
2023-07-26T11:41:09.921Z,71.64
2023-07-26T11:43:39.415Z,71.05
2023-07-26T11:46:06.301Z,68.89
2023-07-26T11:48:34.649Z,68.75
2023-07-26T11:51:04.690Z,67.57
2023-07-26T11:53:44.132Z,65.87
2023-07-26T11:56:12.861Z,65.64
2023-07-26T11:58:39.551Z,63.28
2023-07-26T12:01:06.980Z,63.06
2023-07-26T12:03:34.184Z,61.57
2023-07-26T12:06:04.506Z,61.87
2023-07-26T12:08:36.170Z,60.00
2023-07-26T12:11:06.586Z,57.98
2023-07-26T12:13:35.012Z,59.13
2023-07-26T12:16:04.203Z,58.32
2023-07-26T12:18:31.584Z,56.73
2023-07-26T12:21:14.138Z,54.93
2023-07-26T12:24:02.980Z,55.20
2023-07-26T12:26:33.334Z,54.75
2023-07-26T12:29:01.963Z,56.23
2023-07-26T12:31:31.285Z,56.82
2023-07-26T12:34:02.359Z,55.97
2023-07-26T12:36:31.543Z,56.80
2023-07-26T12:38:59.093Z,57.49
2023-07-26T12:41:26.804Z,58.31
2023-07-26T12:43:55.484Z,57.09
2023-07-26T12:46:22.476Z,56.83
2023-07-26T12:48:49.538Z,57.60
2023-07-26T12:51:16.838Z,57.64
2023-07-26T12:53:43.413Z,58.11
2023-07-26T12:56:09.993Z,59.29
2023-07-26T12:58:36.428Z,59.44
2023-07-26T13:01:02.905Z,59.78
2023-07-26T13:03:29.729Z,58.78
2023-07-26T13:05:57.886Z,58.44
2023-07-26T13:08:24.427Z,57.92
2023-07-26T13:10:51.243Z,57.03
2023-07-26T13:13:17.663Z,56.85
2023-07-26T13:15:44.164Z,57.21
2023-07-26T13:18:10.680Z,55.85
2023-07-26T13:20:37.194Z,56.11
2023-07-26T13:23:03.805Z,55.43
2023-07-26T13:25:30.425Z,55.74
2023-07-26T13:27:59.906Z,55.55
2023-07-26T13:30:26.417Z,56.56
2023-07-26T13:32:52.886Z,56.17
2023-07-26T13:35:19.656Z,56.43
2023-07-26T13:37:46.366Z,54.75
2023-07-26T13:40:18.488Z,52.44
2023-07-26T13:42:44.983Z,50.26
2023-07-26T13:45:11.671Z,49.12
2023-07-26T13:47:38.446Z,48.88
2023-07-26T13:50:05.587Z,48.22
2023-07-26T13:52:32.127Z,48.44
2023-07-26T13:54:58.661Z,46.27
2023-07-26T13:57:25.882Z,46.23
2023-07-26T13:59:52.371Z,45.60
2023-07-26T14:02:21.537Z,45.68
2023-07-26T14:04:48.335Z,46.51
2023-07-26T14:07:14.989Z,47.13
2023-07-26T14:09:41.534Z,45.93
2023-07-26T14:12:09.059Z,46.18
2023-07-26T14:14:36.871Z,44.76
2023-07-26T14:17:03.772Z,44.23
2023-07-26T14:19:30.438Z,44.67
2023-07-26T14:21:57.030Z,45.00
2023-07-26T14:24:23.504Z,43.99
2023-07-26T14:26:50.245Z,43.69
2023-07-26T14:29:16.746Z,43.08
2023-07-26T14:31:43.169Z,44.31
2023-07-26T14:34:09.586Z,45.05
2023-07-26T14:36:36.500Z,45.35
2023-07-26T14:39:03.383Z,45.52
2023-07-26T14:41:30.225Z,45.78
2023-07-26T14:43:56.714Z,45.97
2023-07-26T14:46:23.163Z,46.46
2023-07-26T14:48:49.870Z,46.82
2023-07-26T14:51:16.326Z,47.52
2023-07-26T14:53:42.810Z,46.18
2023-07-26T14:56:09.274Z,46.02
2023-07-26T14:58:35.836Z,45.29
2023-07-26T15:01:03.027Z,44.36
2023-07-26T15:03:30.075Z,43.52
2023-07-26T15:05:56.879Z,43.30
2023-07-26T15:08:23.434Z,43.90
2023-07-26T15:10:51.607Z,44.64
2023-07-26T15:13:18.034Z,45.27
2023-07-26T15:15:44.530Z,45.89
2023-07-26T15:18:11.443Z,47.04
2023-07-26T15:20:38.758Z,48.06
2023-07-26T15:23:05.257Z,48.40
2023-07-26T15:25:31.877Z,50.20
2023-07-26T15:27:58.473Z,51.63
2023-07-26T15:30:25.284Z,54.62
2023-07-26T15:32:51.924Z,55.30
2023-07-26T15:35:18.509Z,54.31
2023-07-26T15:37:45.185Z,54.85
2023-07-26T15:40:12.020Z,58.54
2023-07-26T15:43:00.393Z,63.93
2023-07-26T15:45:54.647Z,74.39
2023-07-26T15:48:13.896Z,83.50
2023-07-26T15:50:54.105Z,85.25
2023-07-26T15:53:22.190Z,87.80
2023-07-26T15:55:50.988Z,88.24
2023-07-26T15:58:25.110Z,88.99
2023-07-26T16:00:53.292Z,88.41
2023-07-26T16:06:15.978Z,90.19
2023-07-26T16:11:05.664Z,89.29
2023-07-26T16:13:32.678Z,88.78
2023-07-26T16:18:31.030Z,84.37
2023-07-26T16:23:27.104Z,82.06
2023-07-26T16:25:53.552Z,80.77
2023-07-26T16:28:20.068Z,81.40
2023-07-26T16:30:47.266Z,79.52
2023-07-26T16:33:13.820Z,77.38
2023-07-26T16:35:40.333Z,77.15
2023-07-26T16:38:07.764Z,77.52
2023-07-26T16:40:34.283Z,77.34
2023-07-26T16:43:02.939Z,77.06
2023-07-26T16:45:30.982Z,76.64
2023-07-26T16:47:57.537Z,76.00
2023-07-26T16:50:24.022Z,77.80
2023-07-26T16:52:50.509Z,77.10
2023-07-26T16:55:16.955Z,75.79
2023-07-26T16:57:43.383Z,75.41
2023-07-26T17:00:10.604Z,72.23
2023-07-26T17:02:37.448Z,73.37
2023-07-26T17:05:05.691Z,70.83
2023-07-26T17:07:32.340Z,71.01
2023-07-26T17:09:58.973Z,69.89
2023-07-26T17:12:25.628Z,70.32
2023-07-26T17:14:52.028Z,70.16
2023-07-26T17:17:18.498Z,72.33
2023-07-26T17:19:44.926Z,73.03
2023-07-26T17:22:11.443Z,73.16
2023-07-26T17:24:38.075Z,74.21
2023-07-26T17:27:04.750Z,75.25
2023-07-26T17:29:31.607Z,75.63
2023-07-26T17:31:58.312Z,76.19
2023-07-26T17:34:25.073Z,76.08
2023-07-26T17:36:51.523Z,77.54
2023-07-26T17:39:18.023Z,77.45
2023-07-26T17:41:44.512Z,78.42
2023-07-26T17:44:11.172Z,78.33
2023-07-26T17:46:38.262Z,77.60
2023-07-26T17:49:04.790Z,77.85
2023-07-26T17:51:31.348Z,77.71
2023-07-26T17:53:57.856Z,78.32
2023-07-26T17:56:24.349Z,77.22
2023-07-26T17:58:50.931Z,77.92
2023-07-26T18:01:17.532Z,77.11
2023-07-26T18:03:44.104Z,76.67
2023-07-26T18:06:10.607Z,76.82
2023-07-26T18:08:37.864Z,77.30
2023-07-26T18:11:04.830Z,77.56
2023-07-26T18:13:32.299Z,78.44
2023-07-26T18:16:07.241Z,79.06
2023-07-26T18:18:34.606Z,78.40
2023-07-26T18:21:08.517Z,78.30
2023-07-26T18:23:35.958Z,79.76
2023-07-26T18:26:02.923Z,80.12
2023-07-26T18:28:29.761Z,81.03
2023-07-26T18:31:04.369Z,81.75
2023-07-26T18:33:31.446Z,82.55
2023-07-26T18:35:58.280Z,83.82
2023-07-26T18:38:25.805Z,83.74
2023-07-26T18:40:53.036Z,84.69
2023-07-26T18:43:22.490Z,84.83
2023-07-26T18:45:49.524Z,85.20
2023-07-26T18:48:16.368Z,85.06
2023-07-26T18:50:42.821Z,86.04
2023-07-26T18:53:09.401Z,86.36
2023-07-26T18:55:35.815Z,86.61
2023-07-26T18:58:02.402Z,86.92
2023-07-26T19:00:29.053Z,87.16
2023-07-26T19:02:55.635Z,86.69
2023-07-26T19:05:22.166Z,87.76
2023-07-26T19:07:48.807Z,87.53
2023-07-26T19:10:15.307Z,88.09
2023-07-26T19:12:41.797Z,88.31
2023-07-26T19:15:08.787Z,88.37
2023-07-26T19:17:35.466Z,88.30
2023-07-26T19:20:03.995Z,87.93
2023-07-26T19:22:31.210Z,88.24
2023-07-26T19:24:57.696Z,88.51
2023-07-26T19:27:25.729Z,88.35
2023-07-26T19:29:55.515Z,88.67
2023-07-26T19:32:22.041Z,89.72
2023-07-26T19:34:48.842Z,89.78
2023-07-26T19:37:15.310Z,90.82
2023-07-26T19:39:41.841Z,91.19
2023-07-26T19:42:08.434Z,91.20
2023-07-26T19:44:34.952Z,90.98
2023-07-26T19:47:01.718Z,91.10
2023-07-26T19:49:28.127Z,91.35
2023-07-26T19:51:54.609Z,90.86
2023-07-26T19:54:22.099Z,90.58
2023-07-26T19:56:48.883Z,91.00
2023-07-26T19:59:15.822Z,91.19
2023-07-26T20:01:42.480Z,90.88
2023-07-26T20:04:09.014Z,90.54
2023-07-26T20:06:35.793Z,89.95
2023-07-26T20:09:02.603Z,89.63
2023-07-26T20:11:29.226Z,89.61
2023-07-26T20:13:55.785Z,89.29
2023-07-26T20:16:23.026Z,89.12
2023-07-26T20:18:49.743Z,88.94
2023-07-26T20:21:16.238Z,88.40
2023-07-26T20:23:42.714Z,87.59
2023-07-26T20:26:09.176Z,88.02
2023-07-26T20:28:35.769Z,88.17
2023-07-26T20:31:04.102Z,88.56
2023-07-26T20:33:30.868Z,87.56
2023-07-26T20:35:57.451Z,88.38
2023-07-26T20:38:23.895Z,88.28
2023-07-26T20:40:50.776Z,88.20
2023-07-26T20:43:17.262Z,88.37
2023-07-26T20:45:43.706Z,88.95
2023-07-26T20:48:10.155Z,88.50
2023-07-26T20:50:36.931Z,88.88
2023-07-26T20:53:04.506Z,89.12
2023-07-26T20:55:31.315Z,88.83
2023-07-26T20:57:57.838Z,88.87
2023-07-26T21:00:24.286Z,89.03
2023-07-26T21:02:50.847Z,88.79
2023-07-26T21:05:17.423Z,89.31
2023-07-26T21:07:43.928Z,89.63
2023-07-26T21:10:10.468Z,89.29
2023-07-26T21:12:38.805Z,89.52
2023-07-26T21:15:06.100Z,89.98
2023-07-26T21:17:32.798Z,89.74
2023-07-26T21:19:59.445Z,89.65
2023-07-26T21:22:25.936Z,89.53
2023-07-26T21:24:52.511Z,89.97
2023-07-26T21:27:19.068Z,90.45
2023-07-26T21:29:45.662Z,90.37
2023-07-26T21:32:12.402Z,90.74
2023-07-26T21:34:38.953Z,91.06
2023-07-26T21:37:05.914Z,91.09
2023-07-26T21:39:32.955Z,90.85
2023-07-26T21:41:59.583Z,91.00
2023-07-26T21:44:28.892Z,90.86
2023-07-26T21:46:56.897Z,91.07
2023-07-26T21:49:23.394Z,90.99
2023-07-26T21:51:50.066Z,91.56
2023-07-26T21:54:16.510Z,91.96
2023-07-26T21:56:42.986Z,92.32
2023-07-26T21:59:10.098Z,92.17
2023-07-26T22:01:37.361Z,92.08
2023-07-26T22:04:04.335Z,92.19
2023-07-26T22:06:31.567Z,92.28
2023-07-26T22:08:58.275Z,92.00
2023-07-26T22:11:24.877Z,92.09
2023-07-26T22:13:51.465Z,91.48
2023-07-26T22:16:17.928Z,91.84
2023-07-26T22:18:44.441Z,91.69
2023-07-26T22:23:40.210Z,91.40
2023-07-26T22:26:15.136Z,91.63
2023-07-26T22:28:47.380Z,92.06
2023-07-26T22:31:14.930Z,91.73
2023-07-26T22:33:41.478Z,91.18
2023-07-26T22:36:09.137Z,91.50
2023-07-26T22:38:35.714Z,91.99
2023-07-26T22:41:02.936Z,91.83
2023-07-26T22:43:29.673Z,91.84
2023-07-26T22:45:56.272Z,92.04
2023-07-26T22:48:22.861Z,92.38
2023-07-26T22:50:49.469Z,92.64
2023-07-26T22:53:16.961Z,92.68
2023-07-26T22:55:43.473Z,93.37
2023-07-26T22:58:09.951Z,93.36
2023-07-26T23:00:36.645Z,93.16
2023-07-26T23:03:03.236Z,92.51
2023-07-26T23:05:30.025Z,92.89
2023-07-26T23:07:56.533Z,92.56
2023-07-26T23:10:23.033Z,93.06
2023-07-26T23:12:49.642Z,93.00
2023-07-26T23:15:16.405Z,92.92
2023-07-26T23:17:43.059Z,93.00
2023-07-26T23:20:09.818Z,93.39
2023-07-26T23:22:37.427Z,93.55
2023-07-26T23:25:04.391Z,93.47
2023-07-26T23:27:30.968Z,93.65
2023-07-26T23:29:57.493Z,93.06
2023-07-26T23:32:24.013Z,93.56
2023-07-26T23:34:50.685Z,93.95
2023-07-26T23:37:17.136Z,93.33
2023-07-26T23:39:43.559Z,93.73
2023-07-26T23:42:10.108Z,94.39
2023-07-26T23:44:37.074Z,94.10
2023-07-26T23:47:03.664Z,94.27
2023-07-26T23:49:30.606Z,94.57
2023-07-26T23:51:57.049Z,94.35
2023-07-26T23:54:23.527Z,94.47
2023-07-26T23:56:50.267Z,94.79
2023-07-26T23:59:16.750Z,94.50
